Flight Track Log - Related Links

Times and Time Zones

All times are in EDT time to prevent confusion due to time zone crossing. See the EGF3609 flight status page for this flight to view local times or setup timezone preferences in your user account.

Time Position Orientation Groundspeed Altitude Reporting Facility
EDT Latitude Longitude Course Direction KTS MPH feet Rate Location/Type
Tue 06:21:00 AM 40.5571 -80.6019 285° West  Level FlightAware Approximate
Tue 06:21:09 AM 40.5481 -80.2253 286° West 281 323 6,100  Level Cleveland Center
Tue 06:22:00 AM 40.5827 -80.7302 285° West  Level FlightAware Approximate
Tue 06:22:09 AM 40.5672 -80.3208 285° West 287 330 9,200  Level Cleveland Center
Tue 06:23:00 AM 40.6176 -80.8547 285° West  Level FlightAware Approximate
Tue 06:23:09 AM 40.5842 -80.4219 282° West 287 330 11,300  Level Cleveland Center
Tue 06:24:00 AM 40.6455 -80.9821 288° West  Level FlightAware Approximate
Tue 06:24:09 AM 40.6028 -80.5503 281° West 317 365 12,800  Level Cleveland Center
Tue 06:25:00 AM 40.6690 -81.1112 286° West  Level FlightAware Approximate
Tue 06:25:09 AM 40.6258 -80.6844 283° West 370 426 14,600  Level Cleveland Center
Tue 06:26:00 AM 40.6961 -81.2391 286° West  Level FlightAware Approximate
Tue 06:26:09 AM 40.6506 -80.8347 282° West 386 444 16,900  Level Cleveland Center
Tue 06:27:09 AM 40.6731 -80.9744 282° West 392 451 18,800 1,750 Climbing Cleveland Center
Tue 06:28:09 AM 40.6892 -81.1033 279° West 392 451 20,400 1,550 Climbing Cleveland Center
Tue 06:29:09 AM 40.7133 -81.2597 282° West 397 457 21,900 1,550 Climbing Cleveland Center
Tue 06:30:09 AM 40.7356 -81.4053 281° West 403 464 23,500 1,550 Climbing Cleveland Center
Tue 06:31:09 AM 40.7614 -81.5508 283° West 408 470 25,000 1,500 Climbing Cleveland Center
Tue 06:32:09 AM 40.7892 -81.6992 284° West 413 475 26,500 1,450 Climbing Cleveland Center
Tue 06:33:09 AM 40.8128 -81.8422 282° West 408 470 27,900 1,250 Climbing Cleveland Center
Tue 06:34:09 AM 40.8422 -81.9911 285° West 413 475 29,000 1,050 Climbing Cleveland Center
Tue 06:35:09 AM 40.8694 -82.1400 284° West 413 475 30,000 900 Climbing Cleveland Center
Tue 06:36:09 AM 40.8925 -82.2750 283° West 418 481 30,800 900 Climbing Cleveland Center
Tue 06:37:09 AM 40.9172 -82.4269 282° West 418 481 31,800 600 Climbing Cleveland Center
Tue 06:38:09 AM 40.9458 -82.5844 284° West 432 497 32,000 100 Climbing Cleveland Center
Tue 06:39:09 AM 40.9744 -82.7392 284° West 437 503 32,000  Level Cleveland Center
Tue 06:40:09 AM 41.0044 -82.9136 283° West 437 503 32,000  Level Cleveland Center
Tue 06:41:09 AM 41.0322 -83.0769 283° West 437 503 32,000  Level Cleveland Center
Tue 06:42:09 AM 41.0581 -83.2186 284° West 444 511 32,000  Level Cleveland Center
Tue 06:43:09 AM 41.0878 -83.3767 284° West 438 504 32,000  Level Cleveland Center
Tue 06:44:09 AM 41.1106 -83.5431 280° West 438 504 32,000  Level Cleveland Center
Tue 06:45:09 AM 41.1356 -83.7042 282° West 438 504 32,000  Level Cleveland Center
Tue 06:47:33 AM 41.1978 -84.0628 283° West 432 497 32,000  Level Chicago Center
Tue 06:48:34 AM 41.2222 -84.2175 282° West 429 494 32,000  Level Chicago Center
Tue 06:49:34 AM 41.2275 -84.3778 273° West 433 498 32,000  Level Chicago Center
Tue 06:50:35 AM 41.2322 -84.5358 272° West 431 496 32,000  Level Chicago Center
Tue 06:51:35 AM 41.2358 -84.6958 272° West 432 497 32,000  Level Chicago Center
Tue 06:52:36 AM 41.2422 -84.8558 273° West 433 498 32,000  Level Chicago Center
Tue 06:53:36 AM 41.2464 -85.0147 272° West 431 496 32,000  Level Chicago Center
Tue 06:54:37 AM 41.2506 -85.1756 272° West 432 497 32,000 -198 Level Chicago Center
Tue 06:55:37 AM 41.2550 -85.3378 272° West 436 502 31,600 -992 Descending Chicago Center
Tue 06:56:38 AM 41.2600 -85.5036 272° West 441 507 30,000 -1,537 Descending Chicago Center
Tue 06:57:38 AM 41.2642 -85.6669 272° West 441 507 28,500 -1,537 Descending Chicago Center
Tue 06:58:39 AM 41.2797 -85.8247 278° West 443 510 26,900 -1,574 Descending Chicago Center
Tue 06:59:40 AM 41.3119 -85.9756 286° West 426 490 25,300 -942 Descending Chicago Center
Tue 07:00:40 AM 41.3450 -86.1292 286° West 427 491 25,000 -149 Descending Chicago Center
Tue 07:01:41 AM 41.3786 -86.2853 286° West 441 507 25,000  Level Chicago Center
Tue 07:02:41 AM 41.4131 -86.4450 286° West 445 512 25,000  Level Chicago Center
Tue 07:03:42 AM 41.4469 -86.6050 286° West 450 518 25,000 -1,230 Level Chicago Center
Tue 07:04:43 AM 41.4775 -86.7453 286° West 409 471 22,500 -3,223 Descending Chicago Center
Tue 07:05:43 AM 41.5125 -86.9128 286° West 392 451 18,500 -3,570 Descending Chicago Center
Tue 07:06:44 AM 41.5419 -87.0456 287° West 380 437 15,300 -3,049 Descending Chicago Center
Tue 07:07:45 AM 41.5678 -87.1753 285° West 366 421 12,300 -2,357 Descending Chicago Center
Tue 07:08:08 AM 41.5833 -87.2167 297° West 345 397 12,000 -940 Descending Chicago TRACON
Tue 07:09:08 AM 41.6333 -87.3167 304° West 349 402 11,000 -980 Descending Chicago TRACON
Tue 07:09:46 AM 41.6678 -87.3864 303° West 348 400 10,400 -606 Descending Chicago Center
Tue 07:10:47 AM 41.7272 -87.4833 309° West 342 394 10,000 -295 Descending Chicago Center
Tue 07:11:48 AM 41.7811 -87.5717 309° West 309 356 9,800 -738 Descending Chicago Center
Tue 07:12:49 AM 41.8289 -87.6522 309° West 280 322 8,500 -1,425 Descending Chicago Center
Tue 07:13:08 AM 41.8500 -87.6833 312° West 276 318 7,900 -987 Descending Chicago TRACON
Tue 07:14:08 AM 41.9333 -87.7000 352° North 281 323 7,200 -450 Descending Chicago TRACON
Tue 07:15:08 AM 42.0000 -87.7000 360° North 223 257 7,000 -524 Descending Chicago TRACON
Tue 07:16:14 AM 42.0500 -87.6833 14° North 208 239 6,100 -1,190 Descending Chicago TRACON
Tue 07:17:09 AM 42.1000 -87.7333 323° Northwest 180 207 4,600 -1,438 Descending Chicago TRACON
Tue 07:18:15 AM 42.0833 -87.7833 246° West 144 166 3,200 -1,273 Descending Chicago TRACON

Login

Don't have an account? Register now (free) for customized features, flight alerts, and more!